CheckWX is a tool to help pilots better visualize weather data.  It is not intended as a substitute for an official pre-flight weather briefing.

21:07:39 UTC

KASN METAR
Talladega Municipal Airport
Talladega, Alabama, USA
Current

13 mins ago

KASN 232055Z AUTO 02003KT 10SM OVC060 33/18 A3017 RMK AO2 T03290177
Observed
May-23 @ 20:55 UTC
Wind
  • 020° at 3 KTS
Visibility
10 SM
Flight Rules
VFR
Cloud Levels
  • Overcast at 6,000' AGL
Temperature
33°C / 91°F
Dewpoint
18°C / 64°F
Heat Index
34°C / 93°F
Humidity
41%
Altimeter
30.17" Hg
Pressure
1021.72 hPa
Previous

33 mins ago

KASN 232035Z AUTO 00000KT 10SM BKN060 33/18 A3018 RMK AO2 T03300178
Observed
May-23 @ 20:35 UTC
Visibility
10 SM
Flight Rules
VFR
Cloud Levels
  • Broken at 6,000' AGL
Temperature
33°C / 91°F
Dewpoint
18°C / 64°F
Heat Index
34°C / 93°F
Humidity
41%
Altimeter
30.18" Hg
Pressure
1022.02 hPa
Previous

2 hours ago

KASN 231915Z AUTO 00000KT 10SM CLR 32/18 A3020 RMK AO2 T03210179
Observed
May-23 @ 19:15 UTC
Visibility
10 SM
Flight Rules
VFR
Cloud Levels
  • Clear skies
Temperature
32°C / 90°F
Dewpoint
18°C / 64°F
Heat Index
33°C / 92°F
Humidity
43%
Altimeter
30.2" Hg
Pressure
1022.72 hPa